Time;durP1;ratioP1;P1;durP2;ratioP2;P2;SDS_P1;SDS_P2;PMS_P1;PMS_P2;Temp;Humidity;BMP_temperature;BMP_pressure;BME280_temperature;BME280_humidity;BME280_pressure;Samples;Min_cycle;Max_cycle;Signal;HPM_P1;HPM_P2
2023/06/12 00:01:07;;;;;;;;;4.67;3.00;;;;;;;;4996145;28;45529;-85
2023/06/12 00:03:33;;;;;;;;;6.00;5.33;;;;;;;;4997398;28;45377;-84
2023/06/12 00:05:59;;;;;;;;;11.75;7.50;;;;;;;;4996937;28;45385;-84
2023/06/12 00:08:28;;;;;;;;;6.75;5.00;;;;;;;;4996977;28;45331;-84
2023/06/12 00:10:54;;;;;;;;;12.00;9.50;;;;;;;;4997129;28;45436;-84
2023/06/12 00:13:20;;;;;;;;;10.00;7.50;;;;;;;;4996882;28;46992;-84
2023/06/12 00:15:45;;;;;;;;;8.00;6.00;;;;;;;;4997059;28;45402;-83
2023/06/12 00:18:12;;;;;;;;;12.00;6.67;;;;;;;;4997181;28;45521;-84
2023/06/12 00:20:37;;;;;;;;;7.50;5.25;;;;;;;;4997092;28;45354;-84
2023/06/12 00:23:02;;;;;;;;;9.33;6.00;;;;;;;;4996501;28;45443;-85
2023/06/12 00:25:27;;;;;;;;;9.75;8.00;;;;;;;;4996921;28;45350;-86
2023/06/12 00:27:53;;;;;;;;;11.25;6.50;;;;;;;;4997018;28;45353;-85
2023/06/12 00:30:18;;;;;;;;;6.00;6.00;;;;;;;;4995644;28;45435;-85
2023/06/12 00:32:43;;;;;;;;;6.00;4.75;;;;;;;;4996652;28;45616;-86
2023/06/12 00:35:08;;;;;;;;;9.67;7.67;;;;;;;;4996476;28;45283;-85
2023/06/12 00:37:34;;;;;;;;;11.67;7.33;;;;;;;;4996408;28;45219;-85
2023/06/12 00:39:59;;;;;;;;;7.00;5.00;;;;;;;;4996822;28;45223;-85
2023/06/12 00:42:35;;;;;;;;;7.00;6.75;;;;;;;;4996592;28;45299;-85
2023/06/12 00:45:00;;;;;;;;;8.25;5.50;;;;;;;;4996569;28;45318;-85
2023/06/12 00:47:26;;;;;;;;;10.25;5.50;;;;;;;;4996968;28;45283;-89
2023/06/12 00:49:54;;;;;;;;;8.75;8.00;;;;;;;;4996722;28;45633;-89
2023/06/12 00:52:21;;;;;;;;;9.25;5.25;;;;;;;;4996456;28;46075;-89
2023/06/12 00:54:47;;;;;;;;;8.00;7.50;;;;;;;;4996597;28;45556;-89
2023/06/12 00:57:12;;;;;;;;;8.00;7.00;;;;;;;;4996732;28;45316;-87
2023/06/12 00:59:38;;;;;;;;;9.50;6.50;;;;;;;;4996677;28;45384;-87
2023/06/12 01:02:03;;;;;;;;;13.50;9.50;;;;;;;;4996342;28;47370;-85
2023/06/12 01:04:29;;;;;;;;;7.75;6.00;;;;;;;;4996279;28;45473;-84
2023/06/12 01:06:58;;;;;;;;;6.50;4.25;;;;;;;;4996137;28;45353;-85
2023/06/12 01:09:23;;;;;;;;;8.75;6.00;;;;;;;;4995055;28;45605;-85
2023/06/12 01:11:51;;;;;;;;;12.00;7.33;;;;;;;;4996146;28;46297;-84
2023/06/12 01:14:17;;;;;;;;;8.75;6.75;;;;;;;;4996096;28;45492;-86
2023/06/12 01:16:44;;;;;;;;;9.75;6.00;;;;;;;;4996349;28;45409;-86
2023/06/12 01:19:10;;;;;;;;;7.50;5.00;;;;;;;;4996312;28;45443;-86
2023/06/12 01:21:36;;;;;;;;;12.00;6.00;;;;;;;;4995817;28;46409;-86
2023/06/12 01:24:05;;;;;;;;;8.00;6.00;;;;;;;;4996268;28;45436;-86
2023/06/12 01:26:33;;;;;;;;;7.00;4.75;;;;;;;;4996094;28;45403;-86
2023/06/12 01:29:04;;;;;;;;;10.00;6.75;;;;;;;;4996138;28;45540;-86
2023/06/12 01:31:56;;;;;;;;;7.25;5.75;;;;;;;;4995774;28;47183;-85
2023/06/12 01:34:28;;;;;;;;;9.75;6.25;;;;;;;;4995510;28;45696;-86
2023/06/12 01:36:57;;;;;;;;;8.75;7.25;;;;;;;;4996136;28;45340;-85
2023/06/12 01:39:23;;;;;;;;;4.25;4.25;;;;;;;;4995996;28;45298;-85
2023/06/12 01:41:48;;;;;;;;;9.75;6.00;;;;;;;;4995683;28;46198;-85
2023/06/12 01:44:16;;;;;;;;;6.75;6.50;;;;;;;;4995958;28;45311;-85
2023/06/12 01:46:42;;;;;;;;;6.50;5.00;;;;;;;;4995946;28;45462;-86
2023/06/12 01:49:07;;;;;;;;;7.25;5.75;;;;;;;;4995563;28;45309;-85
2023/06/12 01:51:32;;;;;;;;;9.67;6.00;;;;;;;;4995564;28;46175;-85
2023/06/12 01:53:58;;;;;;;;;5.00;5.00;;;;;;;;4995657;28;45436;-84
2023/06/12 01:56:27;;;;;;;;;11.25;8.25;;;;;;;;4995994;28;45850;-86
2023/06/12 01:58:52;;;;;;;;;6.25;5.25;;;;;;;;4995845;28;45436;-86
2023/06/12 02:01:18;;;;;;;;;8.00;7.25;;;;;;;;4995448;28;46811;-85
2023/06/12 02:03:45;;;;;;;;;8.00;5.25;;;;;;;;4995449;28;45947;-85
2023/06/12 02:06:11;;;;;;;;;6.25;5.75;;;;;;;;4997378;28;45350;-84
2023/06/12 02:08:37;;;;;;;;;5.75;3.50;;;;;;;;4997953;28;45326;-86
2023/06/12 02:11:02;;;;;;;;;6.67;6.33;;;;;;;;4998871;28;45421;-86
2023/06/12 02:13:27;;;;;;;;;9.00;4.00;;;;;;;;4998590;28;45294;-85
2023/06/12 02:15:52;;;;;;;;;6.00;4.00;;;;;;;;4999092;28;45365;-85
2023/06/12 02:18:17;;;;;;;;;11.00;6.33;;;;;;;;4998873;28;45324;-84
2023/06/12 02:20:43;;;;;;;;;8.33;6.00;;;;;;;;4998702;28;46539;-84
2023/06/12 02:23:08;;;;;;;;;7.67;5.67;;;;;;;;4998579;28;45334;-85
2023/06/12 02:25:33;;;;;;;;;7.00;5.00;;;;;;;;4998921;28;45299;-84
2023/06/12 02:27:58;;;;;;;;;6.00;5.00;;;;;;;;4998906;28;45343;-85
2023/06/12 02:30:23;;;;;;;;;5.67;3.67;;;;;;;;4998733;28;46472;-83
2023/06/12 02:32:49;;;;;;;;;8.00;6.00;;;;;;;;4998144;28;45263;-83
2023/06/12 02:35:14;;;;;;;;;7.25;5.00;;;;;;;;4998450;28;45459;-85
2023/06/12 02:37:40;;;;;;;;;8.00;6.25;;;;;;;;4998731;28;45272;-84
2023/06/12 02:40:05;;;;;;;;;8.67;6.33;;;;;;;;4998591;28;46290;-85
2023/06/12 02:42:30;;;;;;;;;10.50;6.00;;;;;;;;4998401;28;45374;-84
2023/06/12 02:44:55;;;;;;;;;7.00;7.00;;;;;;;;4998761;28;45342;-84
2023/06/12 02:47:21;;;;;;;;;10.67;5.00;;;;;;;;4998222;28;45270;-84
2023/06/12 02:49:48;;;;;;;;;6.00;5.00;;;;;;;;4998536;28;45346;-88
2023/06/12 02:52:13;;;;;;;;;7.00;6.00;;;;;;;;4998266;28;45346;-86
2023/06/12 02:54:38;;;;;;;;;13.00;8.00;;;;;;;;4997369;28;45483;-84
2023/06/12 02:57:04;;;;;;;;;6.33;6.00;;;;;;;;4997086;28;45315;-85
2023/06/12 02:59:29;;;;;;;;;7.00;5.75;;;;;;;;4998267;28;46224;-82
2023/06/12 03:01:54;;;;;;;;;6.75;5.25;;;;;;;;4997818;28;45353;-84
2023/06/12 03:04:20;;;;;;;;;7.00;7.00;;;;;;;;4998417;28;45399;-84
2023/06/12 03:06:47;;;;;;;;;7.00;5.75;;;;;;;;4998289;28;45410;-85
2023/06/12 03:09:15;;;;;;;;;6.25;6.00;;;;;;;;4997982;28;45577;-85
2023/06/12 03:11:41;;;;;;;;;8.50;6.00;;;;;;;;4997900;28;45343;-85
2023/06/12 03:14:07;;;;;;;;;13.75;7.25;;;;;;;;4998051;28;45819;-85
2023/06/12 03:16:33;;;;;;;;;9.00;6.50;;;;;;;;4997693;28;45483;-84
2023/06/12 03:18:58;;;;;;;;;7.25;5.75;;;;;;;;4997909;28;46237;-85
2023/06/12 03:21:23;;;;;;;;;11.00;6.33;;;;;;;;4998002;28;45349;-85
2023/06/12 03:23:49;;;;;;;;;9.00;7.75;;;;;;;;4980138;28;45478;-84
2023/06/12 03:26:14;;;;;;;;;7.25;6.50;;;;;;;;4998007;28;45314;-86
2023/06/12 03:28:39;;;;;;;;;5.25;5.25;;;;;;;;4997791;28;46210;-84
2023/06/12 03:31:05;;;;;;;;;7.67;6.67;;;;;;;;4997443;28;45449;-86
2023/06/12 03:33:30;;;;;;;;;5.00;5.00;;;;;;;;4997589;28;45302;-85
2023/06/12 03:35:55;;;;;;;;;12.67;6.00;;;;;;;;4997833;28;45361;-86
2023/06/12 03:38:20;;;;;;;;;8.00;6.00;;;;;;;;4997338;28;46590;-86
2023/06/12 03:40:48;;;;;;;;;8.00;6.00;;;;;;;;4997756;28;45441;-85
2023/06/12 03:43:13;;;;;;;;;7.00;4.75;;;;;;;;4997810;28;45345;-85
2023/06/12 03:45:38;;;;;;;;;6.33;4.67;;;;;;;;4979780;28;45320;-86
2023/06/12 03:48:06;;;;;;;;;6.33;5.00;;;;;;;;4997480;28;46200;-86
2023/06/12 03:50:31;;;;;;;;;7.50;6.00;;;;;;;;4997418;28;45347;-85
2023/06/12 03:52:59;;;;;;;;;8.00;5.00;;;;;;;;4997669;28;45291;-85
2023/06/12 03:55:24;;;;;;;;;6.25;4.00;;;;;;;;4997415;28;45411;-84
2023/06/12 03:57:50;;;;;;;;;7.50;5.50;;;;;;;;4997236;28;46328;-85
2023/06/12 04:00:16;;;;;;;;;8.75;5.75;;;;;;;;4997107;28;45348;-85
2023/06/12 04:02:42;;;;;;;;;9.75;6.25;;;;;;;;4997408;28;46078;-85
2023/06/12 04:05:08;;;;;;;;;5.00;5.00;;;;;;;;4997453;28;45361;-86
2023/06/12 04:07:33;;;;;;;;;5.75;4.00;;;;;;;;4997152;28;47400;-84
2023/06/12 04:09:58;;;;;;;;;5.25;4.25;;;;;;;;4997253;28;45365;-84
2023/06/12 04:12:23;;;;;;;;;5.33;4.00;;;;;;;;4997447;28;45390;-86
2023/06/12 04:14:49;;;;;;;;;6.00;6.00;;;;;;;;4996836;28;45408;-86
2023/06/12 04:17:16;;;;;;;;;6.00;5.00;;;;;;;;4996952;28;47031;-84
2023/06/12 04:19:41;;;;;;;;;5.25;3.75;;;;;;;;4997077;28;45377;-85
2023/06/12 04:22:06;;;;;;;;;8.75;4.50;;;;;;;;4997186;28;45420;-84
2023/06/12 04:24:33;;;;;;;;;7.67;4.33;;;;;;;;4997078;28;45395;-84
2023/06/12 04:27:01;;;;;;;;;6.50;5.00;;;;;;;;4996791;28;46486;-85
2023/06/12 04:29:27;;;;;;;;;6.75;5.75;;;;;;;;4996035;28;45374;-85
2023/06/12 04:31:54;;;;;;;;;6.25;5.00;;;;;;;;4996830;28;45313;-85
2023/06/12 04:34:20;;;;;;;;;4.00;4.00;;;;;;;;4996903;28;45466;-85
2023/06/12 04:36:45;;;;;;;;;6.25;4.75;;;;;;;;4996583;28;48190;-85
2023/06/12 04:39:11;;;;;;;;;6.75;5.75;;;;;;;;4996814;28;45358;-85
2023/06/12 04:41:37;;;;;;;;;7.75;5.00;;;;;;;;4996856;28;45275;-85
2023/06/12 04:44:03;;;;;;;;;7.75;5.00;;;;;;;;4996548;28;45444;-84
2023/06/12 04:46:28;;;;;;;;;4.25;4.00;;;;;;;;4996399;28;47244;-86
2023/06/12 04:48:54;;;;;;;;;5.00;5.00;;;;;;;;4996749;28;45365;-85
2023/06/12 04:51:19;;;;;;;;;5.50;5.25;;;;;;;;4995336;28;45425;-86
2023/06/12 04:53:47;;;;;;;;;5.25;4.00;;;;;;;;4996654;28;45332;-86
2023/06/12 04:56:12;;;;;;;;;6.50;4.00;;;;;;;;4996480;28;46553;-85
2023/06/12 04:58:38;;;;;;;;;5.00;4.00;;;;;;;;4996164;28;45588;-85
2023/06/12 05:01:03;;;;;;;;;3.25;2.25;;;;;;;;4995462;28;45471;-85
2023/06/12 05:03:32;;;;;;;;;7.67;5.00;;;;;;;;4996529;28;45543;-85
2023/06/12 05:05:58;;;;;;;;;2.00;2.00;;;;;;;;4996142;28;46695;-85
2023/06/12 05:08:23;;;;;;;;;4.50;4.00;;;;;;;;4996382;28;45378;-85
2023/06/12 05:10:48;;;;;;;;;5.00;4.00;;;;;;;;4996431;28;45305;-85
2023/06/12 05:13:13;;;;;;;;;7.00;5.00;;;;;;;;4994430;28;45529;-85
2023/06/12 05:15:38;;;;;;;;;7.00;4.00;;;;;;;;4996117;28;46605;-85
2023/06/12 05:18:04;;;;;;;;;3.00;2.00;;;;;;;;4996227;28;45381;-85
2023/06/12 05:20:29;;;;;;;;;5.00;4.00;;;;;;;;4996290;28;45230;-85
2023/06/12 05:22:55;;;;;;;;;4.67;3.00;;;;;;;;4996309;28;45409;-85
2023/06/12 05:25:20;;;;;;;;;7.50;6.00;;;;;;;;4995994;28;46424;-84
2023/06/12 05:27:45;;;;;;;;;4.33;3.00;;;;;;;;4995793;28;45457;-85
2023/06/12 05:30:11;;;;;;;;;4.67;4.33;;;;;;;;4996260;28;45393;-85
2023/06/12 05:32:36;;;;;;;;;5.50;3.25;;;;;;;;4995864;28;45361;-85
2023/06/12 05:35:02;;;;;;;;;8.00;4.67;;;;;;;;4995744;28;46547;-85
2023/06/12 05:37:28;;;;;;;;;4.00;4.00;;;;;;;;4995895;28;45786;-85
2023/06/12 05:39:53;;;;;;;;;5.33;2.00;;;;;;;;4996134;28;45343;-84
2023/06/12 05:42:19;;;;;;;;;4.75;3.00;;;;;;;;4999000;28;45485;-85
2023/06/12 05:44:46;;;;;;;;;2.75;2.75;;;;;;;;4999487;28;45556;-85
2023/06/12 05:47:11;;;;;;;;;3.00;3.00;;;;;;;;4999408;28;45219;-85
2023/06/12 05:49:39;;;;;;;;;4.00;2.75;;;;;;;;4998289;28;45307;-85
2023/06/12 05:52:07;;;;;;;;;4.50;3.25;;;;;;;;4999297;28;45468;-85
2023/06/12 05:54:35;;;;;;;;;5.00;3.75;;;;;;;;4999108;28;45541;-85
2023/06/12 05:57:00;;;;;;;;;4.25;4.00;;;;;;;;4998889;28;45672;-85
2023/06/12 05:59:29;;;;;;;;;6.00;4.00;;;;;;;;4999271;28;45299;-85
2023/06/12 06:01:57;;;;;;;;;6.25;4.75;;;;;;;;4999393;28;45395;-85
2023/06/12 06:04:22;;;;;;;;;5.50;3.75;;;;;;;;4998933;28;46892;-85
2023/06/12 06:06:52;;;;;;;;;5.25;3.75;;;;;;;;4999059;28;45329;-85
2023/06/12 06:09:17;;;;;;;;;4.00;3.50;;;;;;;;4999131;28;45258;-85
2023/06/12 06:11:42;;;;;;;;;3.25;3.00;;;;;;;;4998827;28;45281;-85
2023/06/12 06:14:10;;;;;;;;;4.33;3.00;;;;;;;;4998568;28;47118;-84
2023/06/12 06:16:35;;;;;;;;;3.75;2.75;;;;;;;;4998899;28;45779;-85
2023/06/12 06:19:00;;;;;;;;;6.00;3.67;;;;;;;;4999254;28;45404;-85
2023/06/12 06:21:26;;;;;;;;;4.00;2.67;;;;;;;;4998919;28;45507;-84
2023/06/12 06:23:51;;;;;;;;;2.50;2.00;;;;;;;;4998618;28;45988;-85
2023/06/12 06:26:16;;;;;;;;;4.33;3.00;;;;;;;;4998389;28;45503;-85
2023/06/12 06:28:41;;;;;;;;;3.67;3.33;;;;;;;;4998886;28;45411;-85
2023/06/12 06:31:07;;;;;;;;;5.67;4.67;;;;;;;;4998806;28;45384;-87
2023/06/12 06:33:32;;;;;;;;;2.50;2.00;;;;;;;;4998352;28;46381;-86
2023/06/12 06:35:58;;;;;;;;;8.00;4.25;;;;;;;;4994555;28;45682;-85
2023/06/12 06:38:24;;;;;;;;;4.00;2.75;;;;;;;;4998471;28;45514;-85
2023/06/12 06:40:49;;;;;;;;;3.00;3.00;;;;;;;;4998132;28;45389;-85
2023/06/12 06:43:15;;;;;;;;;2.50;1.50;;;;;;;;4993833;28;47316;-86
2023/06/12 06:45:40;;;;;;;;;6.33;3.67;;;;;;;;4998634;28;45444;-85
2023/06/12 06:48:07;;;;;;;;;3.67;2.67;;;;;;;;4988746;28;45358;-85
2023/06/12 06:50:32;;;;;;;;;3.25;2.75;;;;;;;;4978953;28;45381;-86
2023/06/12 06:52:57;;;;;;;;;3.33;2.00;;;;;;;;4978362;28;45322;-85
2023/06/12 06:55:22;;;;;;;;;7.67;4.67;;;;;;;;4978179;28;45276;-86
2023/06/12 06:57:50;;;;;;;;;3.00;3.00;;;;;;;;4978720;28;45303;-85
2023/06/12 07:00:16;;;;;;;;;4.75;4.00;;;;;;;;4992782;28;45456;-84
2023/06/12 07:02:43;;;;;;;;;5.50;4.75;;;;;;;;4992313;28;46448;-85
2023/06/12 07:05:08;;;;;;;;;9.00;4.50;;;;;;;;4991282;28;45319;-84
2023/06/12 07:07:33;;;;;;;;;3.00;3.00;;;;;;;;4991243;28;45472;-84
2023/06/12 07:09:58;;;;;;;;;7.00;4.00;;;;;;;;4979836;28;45234;-82
2023/06/12 07:12:23;;;;;;;;;3.00;3.00;;;;;;;;4984505;28;46291;-85
2023/06/12 07:14:49;;;;;;;;;7.00;6.00;;;;;;;;4991372;28;45357;-84
2023/06/12 07:17:14;;;;;;;;;4.00;2.00;;;;;;;;4978421;28;45275;-83
2023/06/12 07:19:39;;;;;;;;;3.33;2.33;;;;;;;;4982006;28;45467;-83
2023/06/12 07:22:04;;;;;;;;;6.00;3.00;;;;;;;;4991586;28;46553;-83
2023/06/12 07:24:30;;;;;;;;;5.75;3.00;;;;;;;;4985224;28;45346;-82
2023/06/12 07:26:55;;;;;;;;;5.50;3.00;;;;;;;;4986330;28;45423;-82
2023/06/12 07:29:20;;;;;;;;;4.00;4.00;;;;;;;;4995587;28;45191;-82
2023/06/12 07:31:47;;;;;;;;;3.25;3.00;;;;;;;;4992703;28;46009;-85
2023/06/12 07:34:12;;;;;;;;;5.00;3.00;;;;;;;;4987140;28;45284;-82
2023/06/12 07:36:38;;;;;;;;;6.67;3.00;;;;;;;;4986560;28;45217;-81
2023/06/12 07:39:03;;;;;;;;;5.00;3.25;;;;;;;;4988789;28;45506;-81
2023/06/12 07:41:29;;;;;;;;;4.33;3.00;;;;;;;;4996715;28;46288;-81
2023/06/12 07:43:54;;;;;;;;;5.67;4.00;;;;;;;;4984143;28;45524;-81
2023/06/12 07:46:19;;;;;;;;;8.33;4.00;;;;;;;;4977737;28;45407;-83
2023/06/12 07:48:44;;;;;;;;;2.67;2.00;;;;;;;;4970713;28;45454;-83
2023/06/12 07:51:10;;;;;;;;;3.00;3.00;;;;;;;;4995506;28;45448;-83
2023/06/12 07:53:35;;;;;;;;;5.00;2.67;;;;;;;;4987134;28;45389;-83
2023/06/12 07:56:00;;;;;;;;;4.25;3.25;;;;;;;;4994876;28;45369;-82
2023/06/12 07:58:25;;;;;;;;;5.00;3.00;;;;;;;;4995345;28;45477;-83
2023/06/12 08:00:55;;;;;;;;;4.00;4.00;;;;;;;;4990358;28;47173;-83
2023/06/12 08:03:24;;;;;;;;;4.00;3.00;;;;;;;;4992489;28;45847;-83
2023/06/12 08:05:50;;;;;;;;;6.75;3.00;;;;;;;;4996899;28;45362;-82
2023/06/12 08:08:15;;;;;;;;;4.75;3.00;;;;;;;;4996864;28;45399;-82
2023/06/12 08:10:40;;;;;;;;;6.00;2.67;;;;;;;;4977142;28;47201;-83
2023/06/12 08:13:05;;;;;;;;;3.33;3.00;;;;;;;;4996815;28;45322;-82
2023/06/12 08:15:31;;;;;;;;;2.00;2.00;;;;;;;;4991323;28;45247;-83
2023/06/12 08:17:56;;;;;;;;;4.00;3.00;;;;;;;;4977050;28;45350;-82
2023/06/12 08:20:21;;;;;;;;;4.75;3.25;;;;;;;;4977903;28;46392;-83
2023/06/12 08:22:47;;;;;;;;;4.00;4.00;;;;;;;;4977643;28;45470;-83
2023/06/12 08:25:12;;;;;;;;;7.75;4.00;;;;;;;;4991112;28;45353;-81
2023/06/12 08:27:37;;;;;;;;;3.00;3.00;;;;;;;;4983894;28;45587;-81
2023/06/12 08:30:03;;;;;;;;;3.50;2.75;;;;;;;;4992185;28;46877;-82
2023/06/12 08:32:28;;;;;;;;;3.50;3.50;;;;;;;;4992898;28;45400;-83
2023/06/12 08:34:53;;;;;;;;;4.50;4.50;;;;;;;;4990329;28;45424;-82
2023/06/12 08:37:21;;;;;;;;;5.75;3.50;;;;;;;;4982213;28;45691;-85
2023/06/12 08:39:47;;;;;;;;;7.00;5.50;;;;;;;;4989732;28;46657;-84
2023/06/12 08:42:14;;;;;;;;;3.33;3.33;;;;;;;;4995485;28;45433;-82
2023/06/12 08:44:43;;;;;;;;;4.00;2.75;;;;;;;;4990585;28;45385;-83
2023/06/12 08:47:08;;;;;;;;;2.50;2.00;;;;;;;;4993256;28;45708;-83
2023/06/12 08:49:34;;;;;;;;;3.75;3.25;;;;;;;;4994411;28;45517;-84
2023/06/12 08:52:00;;;;;;;;;3.50;3.00;;;;;;;;4995542;28;45593;-84
2023/06/12 08:54:27;;;;;;;;;4.50;3.50;;;;;;;;4995759;28;45400;-85
2023/06/12 08:56:54;;;;;;;;;8.25;3.75;;;;;;;;4976023;28;45514;-83
2023/06/12 08:59:19;;;;;;;;;3.75;3.00;;;;;;;;4974252;28;47300;-83
2023/06/12 09:01:50;;;;;;;;;7.50;3.00;;;;;;;;4990152;28;45426;-82
2023/06/12 09:04:19;;;;;;;;;5.25;4.25;;;;;;;;4993990;28;45350;-83
2023/06/12 09:06:45;;;;;;;;;5.00;3.75;;;;;;;;4991656;28;45555;-83
2023/06/12 09:09:10;;;;;;;;;4.00;4.00;;;;;;;;4989112;28;46225;-83
2023/06/12 09:11:37;;;;;;;;;7.00;5.00;;;;;;;;4986526;28;45516;-81
2023/06/12 09:14:02;;;;;;;;;3.25;3.25;;;;;;;;4994914;28;45489;-83
2023/06/12 09:16:27;;;;;;;;;3.50;2.50;;;;;;;;4994989;28;45496;-83
2023/06/12 09:18:53;;;;;;;;;6.67;4.67;;;;;;;;4994306;28;45529;-83
2023/06/12 09:21:20;;;;;;;;;4.00;3.00;;;;;;;;4994768;28;45464;-82
2023/06/12 09:23:50;;;;;;;;;4.00;4.00;;;;;;;;4995156;28;45528;-83
2023/06/12 09:26:15;;;;;;;;;6.75;4.75;;;;;;;;4991636;28;45591;-83
2023/06/12 09:28:41;;;;;;;;;6.25;6.00;;;;;;;;4989035;28;46531;-82
2023/06/12 09:31:06;;;;;;;;;5.75;5.75;;;;;;;;4993329;28;45913;-83
2023/06/12 09:33:32;;;;;;;;;5.00;5.00;;;;;;;;4992862;28;45425;-83
2023/06/12 09:35:58;;;;;;;;;5.75;5.00;;;;;;;;4986788;28;45578;-83
2023/06/12 09:38:30;;;;;;;;;5.25;4.00;;;;;;;;4996024;28;47265;-84
2023/06/12 09:40:59;;;;;;;;;6.50;4.00;;;;;;;;4990076;28;49426;-82
2023/06/12 09:43:26;;;;;;;;;8.00;5.25;;;;;;;;4994810;28;45465;-83
2023/06/12 09:45:51;;;;;;;;;5.25;3.50;;;;;;;;4980416;28;45295;-84
2023/06/12 09:48:17;;;;;;;;;6.00;5.25;;;;;;;;4981712;28;46610;-85
2023/06/12 09:50:42;;;;;;;;;5.00;5.00;;;;;;;;4992821;28;45504;-81
2023/06/12 09:53:09;;;;;;;;;5.25;4.50;;;;;;;;4993062;28;45441;-83
2023/06/12 09:55:35;;;;;;;;;6.25;6.25;;;;;;;;4993293;28;45556;-83
2023/06/12 09:58:03;;;;;;;;;4.25;3.00;;;;;;;;4991266;28;47313;-84
2023/06/12 10:00:29;;;;;;;;;8.25;5.25;;;;;;;;4991008;28;45394;-85
2023/06/12 10:03:00;;;;;;;;;9.00;5.25;;;;;;;;4994522;28;45514;-85
2023/06/12 10:05:31;;;;;;;;;8.00;4.75;;;;;;;;4976945;28;45631;-83
2023/06/12 10:07:59;;;;;;;;;8.25;6.00;;;;;;;;4993021;28;45406;-86
2023/06/12 10:10:25;;;;;;;;;6.25;4.50;;;;;;;;4994055;28;45785;-85
2023/06/12 10:12:51;;;;;;;;;8.00;4.25;;;;;;;;4994396;28;45352;-86
2023/06/12 10:15:17;;;;;;;;;9.75;7.00;;;;;;;;4993612;28;45520;-84
2023/06/12 10:17:42;;;;;;;;;8.25;6.50;;;;;;;;4989451;28;47277;-85
2023/06/12 10:20:11;;;;;;;;;8.50;6.75;;;;;;;;4986579;28;45476;-83
2023/06/12 10:22:40;;;;;;;;;8.00;5.25;;;;;;;;4992479;28;46851;-84
2023/06/12 10:25:09;;;;;;;;;7.00;6.00;;;;;;;;4994298;28;45469;-85
2023/06/12 10:27:36;;;;;;;;;9.75;7.00;;;;;;;;4989740;28;46310;-85
2023/06/12 10:30:01;;;;;;;;;7.25;6.75;;;;;;;;4982808;28;45501;-85
2023/06/12 10:32:31;;;;;;;;;8.00;5.25;;;;;;;;4992427;28;45575;-84
2023/06/12 10:34:57;;;;;;;;;6.75;6.00;;;;;;;;4997640;28;45512;-84
2023/06/12 10:37:27;;;;;;;;;7.50;5.75;;;;;;;;4995623;28;46348;-84
2023/06/12 10:40:02;;;;;;;;;11.25;6.25;;;;;;;;4992687;28;45655;-84
2023/06/12 10:42:47;;;;;;;;;4.50;3.75;;;;;;;;4997301;28;45483;-84
2023/06/12 10:45:18;;;;;;;;;7.75;6.75;;;;;;;;4997538;28;45310;-83
2023/06/12 10:48:02;;;;;;;;;10.50;6.75;;;;;;;;4994535;28;47112;-84
2023/06/12 10:50:27;;;;;;;;;9.75;6.75;;;;;;;;4970008;28;45998;-84
2023/06/12 10:52:54;;;;;;;;;8.00;7.00;;;;;;;;5008870;28;45280;-84
2023/06/12 10:55:21;;;;;;;;;7.75;6.50;;;;;;;;4999853;28;45235;-85
2023/06/12 10:57:46;;;;;;;;;9.50;5.50;;;;;;;;4988217;28;46217;-83
2023/06/12 11:00:13;;;;;;;;;12.00;7.00;;;;;;;;4996445;28;45299;-83
2023/06/12 11:02:39;;;;;;;;;6.00;5.00;;;;;;;;4992129;28;45508;-83
2023/06/12 11:05:05;;;;;;;;;9.75;6.00;;;;;;;;4979477;28;45594;-87
2023/06/12 11:07:31;;;;;;;;;7.75;5.75;;;;;;;;4993931;28;45547;-81
2023/06/12 11:09:56;;;;;;;;;8.25;8.00;;;;;;;;4979037;28;46069;-82
2023/06/12 11:12:22;;;;;;;;;10.75;8.00;;;;;;;;4989790;28;45464;-84
2023/06/12 11:14:47;;;;;;;;;7.33;6.00;;;;;;;;4996822;28;45507;-84
2023/06/12 11:17:13;;;;;;;;;8.33;6.00;;;;;;;;4996709;28;47559;-86
2023/06/12 11:19:38;;;;;;;;;7.50;7.00;;;;;;;;4995017;28;45796;-86
2023/06/12 11:22:06;;;;;;;;;7.00;5.67;;;;;;;;4994813;28;45594;-85
2023/06/12 11:24:31;;;;;;;;;8.75;5.75;;;;;;;;4994224;28;45583;-85
2023/06/12 11:27:00;;;;;;;;;6.00;5.50;;;;;;;;4994980;28;47094;-87
2023/06/12 11:29:29;;;;;;;;;10.50;8.00;;;;;;;;4991506;28;45548;-90
2023/06/12 11:32:02;;;;;;;;;8.25;6.50;;;;;;;;4992605;28;45594;-87
2023/06/12 11:34:34;;;;;;;;;8.00;6.75;;;;;;;;4993540;28;45549;-90
2023/06/12 11:37:10;;;;;;;;;8.50;6.00;;;;;;;;4972194;28;47992;-88
2023/06/12 11:39:35;;;;;;;;;9.00;5.75;;;;;;;;4984212;28;45519;-87
2023/06/12 11:42:01;;;;;;;;;9.67;7.33;;;;;;;;4996983;28;45741;-86
2023/06/12 11:44:27;;;;;;;;;12.25;10.50;;;;;;;;4987580;28;45646;-88
2023/06/12 11:46:57;;;;;;;;;11.50;7.00;;;;;;;;4996837;28;46071;-86
2023/06/12 11:49:22;;;;;;;;;10.25;8.00;;;;;;;;4996187;28;45317;-86
2023/06/12 11:51:47;;;;;;;;;10.00;7.33;;;;;;;;4978251;28;45489;-87
2023/06/12 11:54:14;;;;;;;;;9.00;6.33;;;;;;;;4964676;28;45479;-87
2023/06/12 11:56:40;;;;;;;;;9.50;6.75;;;;;;;;4979317;28;46265;-85
2023/06/12 11:59:05;;;;;;;;;10.25;8.50;;;;;;;;4985451;28;45810;-86
2023/06/12 12:01:36;;;;;;;;;6.67;6.33;;;;;;;;4995719;28;45345;-86
2023/06/12 12:04:03;;;;;;;;;14.00;8.50;;;;;;;;4978795;28;45591;-85
2023/06/12 12:06:31;;;;;;;;;10.25;7.25;;;;;;;;4995798;28;46187;-88
2023/06/12 12:08:57;;;;;;;;;10.75;8.25;;;;;;;;4985541;28;45531;-89
2023/06/12 12:11:23;;;;;;;;;9.00;6.50;;;;;;;;4988399;28;45446;-86
2023/06/12 12:13:52;;;;;;;;;10.75;7.25;;;;;;;;4989251;28;45439;-83
2023/06/12 12:16:22;;;;;;;;;9.50;7.75;;;;;;;;4992022;28;46218;-83
2023/06/12 12:18:47;;;;;;;;;10.00;8.00;;;;;;;;4994996;28;45485;-83
2023/06/12 12:21:13;;;;;;;;;10.67;8.67;;;;;;;;4993422;28;45492;-87
2023/06/12 12:23:38;;;;;;;;;10.25;7.75;;;;;;;;4996332;28;45534;-83
2023/06/12 12:26:03;;;;;;;;;12.67;10.33;;;;;;;;4994505;28;45411;-85
2023/06/12 12:28:28;;;;;;;;;11.33;7.67;;;;;;;;4990572;28;45551;-85
2023/06/12 12:30:53;;;;;;;;;8.67;8.00;;;;;;;;4989198;28;46882;-86
2023/06/12 12:33:19;;;;;;;;;8.67;7.00;;;;;;;;4995668;28;45570;-84
2023/06/12 12:35:45;;;;;;;;;9.67;8.00;;;;;;;;4994626;28;46497;-85
2023/06/12 12:38:10;;;;;;;;;12.50;8.00;;;;;;;;4990126;28;45386;-84
2023/06/12 12:40:35;;;;;;;;;9.67;7.33;;;;;;;;4981931;28;45556;-84
2023/06/12 12:43:00;;;;;;;;;11.67;7.67;;;;;;;;4995012;28;45504;-83
2023/06/12 12:45:27;;;;;;;;;8.33;5.33;;;;;;;;4995221;28;46342;-84
2023/06/12 12:47:53;;;;;;;;;11.00;8.00;;;;;;;;4984825;28;45726;-85
2023/06/12 12:50:19;;;;;;;;;11.00;9.00;;;;;;;;4992902;28;45867;-83
2023/06/12 12:52:44;;;;;;;;;11.50;8.75;;;;;;;;4994325;28;45492;-85
2023/06/12 12:55:11;;;;;;;;;11.50;8.00;;;;;;;;4995427;28;45752;-85
2023/06/12 12:57:38;;;;;;;;;10.25;8.00;;;;;;;;4993307;28;45769;-83
2023/06/12 13:00:14;;;;;;;;;8.50;8.00;;;;;;;;4989358;28;45468;-83
2023/06/12 13:02:40;;;;;;;;;11.75;9.75;;;;;;;;4985997;28;45404;-83
2023/06/12 13:05:06;;;;;;;;;10.25;9.00;;;;;;;;4995261;28;46366;-84
2023/06/12 13:07:36;;;;;;;;;9.75;8.00;;;;;;;;4993343;28;45295;-83
2023/06/12 13:10:02;;;;;;;;;10.00;8.00;;;;;;;;4989104;28;45405;-83
2023/06/12 13:12:28;;;;;;;;;9.25;6.25;;;;;;;;4992773;28;45526;-83
2023/06/12 13:14:53;;;;;;;;;11.67;10.33;;;;;;;;4993236;28;46479;-84
2023/06/12 13:17:18;;;;;;;;;9.00;7.67;;;;;;;;4976163;28;47204;-84
2023/06/12 13:19:44;;;;;;;;;9.75;6.25;;;;;;;;4995234;28;45413;-83
2023/06/12 13:22:09;;;;;;;;;7.25;7.25;;;;;;;;4986402;28;45532;-84
2023/06/12 13:24:34;;;;;;;;;12.50;8.00;;;;;;;;4993636;28;47240;-84
2023/06/12 13:27:00;;;;;;;;;7.25;5.00;;;;;;;;4994758;28;45383;-85
2023/06/12 13:29:25;;;;;;;;;7.75;6.50;;;;;;;;4994742;28;45430;-85
2023/06/12 13:31:51;;;;;;;;;9.25;7.50;;;;;;;;4994489;28;45388;-86
2023/06/12 13:34:16;;;;;;;;;8.25;5.00;;;;;;;;4994064;28;47138;-85
2023/06/12 13:36:41;;;;;;;;;8.25;5.00;;;;;;;;4985890;28;45379;-84
2023/06/12 13:39:06;;;;;;;;;7.67;5.33;;;;;;;;4985283;28;45406;-85
2023/06/12 13:41:32;;;;;;;;;6.75;6.00;;;;;;;;4991937;28;45464;-86
2023/06/12 13:43:57;;;;;;;;;9.50;5.75;;;;;;;;4994686;28;47206;-86
2023/06/12 13:46:22;;;;;;;;;10.25;6.25;;;;;;;;4990732;28;45598;-85
2023/06/12 13:48:50;;;;;;;;;6.67;6.33;;;;;;;;4993310;28;45293;-83
2023/06/12 13:51:16;;;;;;;;;8.00;7.00;;;;;;;;4991878;28;45425;-83
2023/06/12 13:53:41;;;;;;;;;8.00;5.50;;;;;;;;4983862;28;47330;-83
2023/06/12 13:56:07;;;;;;;;;9.00;5.33;;;;;;;;4994990;28;45409;-84
2023/06/12 13:58:32;;;;;;;;;6.25;6.00;;;;;;;;5001469;28;45411;-85
2023/06/12 14:00:57;;;;;;;;;8.67;7.00;;;;;;;;4992185;28;45487;-86
2023/06/12 14:03:22;;;;;;;;;9.00;7.33;;;;;;;;4993381;28;46642;-85
2023/06/12 14:05:48;;;;;;;;;7.75;5.75;;;;;;;;4997859;28;45421;-85
2023/06/12 14:08:13;;;;;;;;;11.33;6.00;;;;;;;;4997551;28;45313;-84
2023/06/12 14:10:39;;;;;;;;;8.00;4.75;;;;;;;;4997655;28;45362;-82
2023/06/12 14:13:04;;;;;;;;;6.50;6.25;;;;;;;;4997732;28;46431;-83
2023/06/12 14:15:30;;;;;;;;;7.67;6.00;;;;;;;;4987050;28;45405;-83
2023/06/12 14:18:01;;;;;;;;;6.75;5.75;;;;;;;;4997870;28;45384;-83
2023/06/12 14:20:26;;;;;;;;;6.00;5.75;;;;;;;;4997728;28;45379;-82
2023/06/12 14:22:52;;;;;;;;;6.00;4.33;;;;;;;;4997908;28;45385;-85
2023/06/12 14:25:19;;;;;;;;;9.00;6.00;;;;;;;;4997370;28;46523;-84
2023/06/12 14:27:44;;;;;;;;;5.50;4.00;;;;;;;;4997712;28;45410;-84
2023/06/12 14:30:10;;;;;;;;;6.33;5.00;;;;;;;;4983653;28;45457;-85
2023/06/12 14:32:36;;;;;;;;;5.50;4.50;;;;;;;;4996392;28;46851;-85
2023/06/12 14:35:01;;;;;;;;;5.33;5.00;;;;;;;;4979841;28;45377;-83